^^
Station Historical Data
Daily Summary for July 18, 2017 Units:  English    Metric   Both
« Previous Day
Next Day »
Daily Weekly Monthly Yearly Custom
  High: Low: Average:
Temperature: 87.9 °F 70.4 °F 79 °F
Dew Point: 73.1 °F 69.2 °F 71.3 °F
Humidity: 96% 59% 79%
Wind Speed: 6.0mph 0.0mph 1.2mph
Wind Gust: 12.0mph - -
Wind- - SW
Pressure: 30.12 in 30.03 in -
Precipitation: 0.00 in    
Historical Graphs
 
 
Tabular Data for July 18, 2017
Time Temperature Dew Point Pressure Wind Wind Speed Wind Gust Humidity Rainfall Rate (Hourly) Conditions
00:00 73.4 °F 70.9 °F 30.08 in Calm     92% 0.00 in CLR
00:15 73.5 °F 71.4 °F 30.08 in Calm   2.0 mph 93% 0.00 in BKN
00:30 73.7 °F 71.5 °F 30.08 in Calm   1.0 mph 93% 0.00 in BKN
00:45 73.9 °F 71.7 °F 30.07 in SW 1.0 mph 3.0 mph 93% 0.00 in BKN
01:00 73.9 °F 71.7 °F 30.07 in Calm   1.0 mph 93% 0.00 in BKN
01:15 73.7 °F 71.6 °F 30.07 in Calm   3.0 mph 93% 0.00 in BKN
01:30 73.5 °F 71.7 °F 30.07 in Calm   1.0 mph 94% 0.00 in BKN
01:45 73.4 °F 71.6 °F 30.07 in Calm     94% 0.00 in BKN
02:00 73.5 °F 71.7 °F 30.07 in Calm     94% 0.00 in BKN
02:15 73.5 °F 71.7 °F 30.07 in Calm     94% 0.00 in BKN
02:30 73.6 °F 71.8 °F 30.07 in Calm   3.0 mph 94% 0.00 in BKN
02:45 73.6 °F 71.8 °F 30.07 in Calm   1.0 mph 94% 0.00 in BKN
03:00 73.3 °F 71.5 °F 30.07 in Calm   1.0 mph 94% 0.00 in BKN
03:15 73.2 °F 71.7 °F 30.08 in Calm   1.0 mph 95% 0.00 in BKN
03:30 73.3 °F 71.5 °F 30.08 in Calm   1.0 mph 94% 0.00 in BKN
03:45 73.3 °F 71.5 °F 30.08 in Calm   1.0 mph 94% 0.00 in BKN
04:00 73.2 °F 71.4 °F 30.07 in Calm   1.0 mph 94% 0.00 in BKN
04:15 72.7 °F 70.9 °F 30.07 in Calm   2.0 mph 94% 0.00 in -RA
04:30 72.2 °F 70.4 °F 30.07 in Calm     94% 0.00 in -RA
04:45 71.8 °F 70.3 °F 30.07 in Calm     95% 0.00 in -RA
05:00 71.6 °F 70.1 °F 30.08 in Calm     95% 0.00 in -RA
05:15 71.2 °F 69.7 °F 30.08 in Calm     95% 0.00 in BKN
05:30 70.7 °F 69.2 °F 30.08 in Calm     95% 0.00 in BKN
05:45 70.4 °F 69.2 °F 30.08 in Calm     96% 0.00 in BKN
06:00 70.6 °F 69.4 °F 30.08 in Calm     96% 0.00 in BKN
06:15 70.8 °F 69.6 °F 30.08 in Calm     96% 0.00 in CLR
06:30 70.5 °F 69.3 °F 30.09 in Calm     96% 0.00 in CLR
06:45 70.9 °F 69.7 °F 30.09 in Calm     96% 0.00 in CLR
07:00 71.4 °F 70.2 °F 30.09 in Calm     96% 0.00 in CLR
07:15 71.9 °F 70.7 °F 30.10 in WSW 1.0 mph 4.0 mph 96% 0.00 in CLR
07:30 72.5 °F 70.4 °F 30.11 in SW 2.0 mph 4.0 mph 93% 0.00 in CLR
07:45 72.9 °F 70.4 °F 30.11 in Calm   3.0 mph 92% 0.00 in CLR
08:00 73.6 °F 70.5 °F 30.11 in SSW 1.0 mph 3.0 mph 90% 0.00 in CLR
08:15 74.0 °F 70.9 °F 30.12 in SSW 1.0 mph 3.0 mph 90% 0.00 in CLR
08:30 75.2 °F 71.1 °F 30.12 in WSW 1.0 mph 4.0 mph 87% 0.00 in CLR
08:45 76.8 °F 71.2 °F 30.12 in WSW 1.0 mph 3.0 mph 83% 0.00 in CLR
09:00 77.4 °F 72.2 °F 30.11 in SW 1.0 mph 5.0 mph 84% 0.00 in CLR
09:15 78.3 °F 72.4 °F 30.11 in Calm   4.0 mph 82% 0.00 in SCT
09:30 79.1 °F 72.1 °F 30.11 in South 1.0 mph 5.0 mph 79% 0.00 in SCT
09:45 79.2 °F 71.8 °F 30.11 in SW 1.0 mph 4.0 mph 78% 0.00 in SCT
10:00 79.6 °F 72.2 °F 30.11 in Calm   6.0 mph 78% 0.00 in SCT
10:15 80.3 °F 72.0 °F 30.11 in SW 3.0 mph 7.0 mph 76% 0.00 in SCT
10:30 79.9 °F 72.0 °F 30.11 in WSW 1.0 mph 6.0 mph 77% 0.00 in SCT
10:45 80.3 °F 72.0 °F 30.11 in SW 2.0 mph 6.0 mph 76% 0.00 in SCT
11:00 80.9 °F 71.8 °F 30.11 in SSW 1.0 mph 9.0 mph 74% 0.00 in SCT
11:15 82.3 °F 72.4 °F 30.10 in WSW 3.0 mph 6.0 mph 72% 0.00 in SCT
11:30 83.1 °F 73.1 °F 30.10 in WNW 1.0 mph 5.0 mph 72% 0.00 in SCT
11:45 83.7 °F 72.4 °F 30.10 in Calm   6.0 mph 69% 0.00 in SCT
12:00 83.6 °F 71.9 °F 30.09 in SW 2.0 mph 7.0 mph 68% 0.00 in SCT
12:15 84.1 °F 72.4 °F 30.09 in SSW 3.0 mph 7.0 mph 68% 0.00 in BKN
12:30 84.7 °F 72.5 °F 30.10 in SW 5.0 mph 10.0 mph 67% 0.00 in BKN
12:45 85.4 °F 71.8 °F 30.09 in SW 6.0 mph 10.0 mph 64% 0.00 in BKN
13:00 85.9 °F 70.9 °F 30.08 in South 3.0 mph 9.0 mph 61% 0.00 in BKN
13:15 86.4 °F 71.9 °F 30.07 in SW 1.0 mph 9.0 mph 62% 0.00 in BKN
13:30 85.9 °F 70.4 °F 30.07 in WSW 3.0 mph 8.0 mph 60% 0.00 in BKN
13:45 87.1 °F 71.5 °F 30.07 in WSW 5.0 mph 7.0 mph 60% 0.00 in BKN
14:00 87.1 °F 72.5 °F 30.06 in SSW 1.0 mph 8.0 mph 62% 0.00 in BKN
14:15 86.8 °F 72.3 °F 30.06 in SW 3.0 mph 8.0 mph 62% 0.00 in BKN
14:30 87.7 °F 72.1 °F 30.05 in South 5.0 mph 12.0 mph 60% 0.00 in BKN
14:45 87.5 °F 72.4 °F 30.05 in SW 5.0 mph 12.0 mph 61% 0.00 in BKN
15:00 87.6 °F 72.5 °F 30.05 in SSW 2.0 mph 12.0 mph 61% 0.00 in BKN
15:15 86.5 °F 71.5 °F 30.05 in WSW 1.0 mph 10.0 mph 61% 0.00 in BKN
15:30 86.6 °F 72.0 °F 30.04 in SSW 2.0 mph 6.0 mph 62% 0.00 in BKN
15:45 87.3 °F 72.2 °F 30.04 in SSW 1.0 mph 5.0 mph 61% 0.00 in BKN
16:00 86.7 °F 71.6 °F 30.04 in SSW 1.0 mph 7.0 mph 61% 0.00 in BKN
16:15 86.5 °F 72.0 °F 30.04 in SSW 2.0 mph 7.0 mph 62% 0.00 in BKN
16:30 87.8 °F 72.2 °F 30.04 in SW 2.0 mph 5.0 mph 60% 0.00 in BKN
16:45 87.9 °F 71.8 °F 30.04 in SSW 1.0 mph 9.0 mph 59% 0.00 in BKN
17:00 87.7 °F 72.1 °F 30.03 in SSW 2.0 mph 9.0 mph 60% 0.00 in BKN
17:15 87.6 °F 71.5 °F 30.03 in SSE 2.0 mph 8.0 mph 59% 0.00 in BKN
17:30 87.8 °F 72.2 °F 30.03 in SSW 2.0 mph 7.0 mph 60% 0.00 in BKN
17:45 87.9 °F 72.3 °F 30.03 in SSW 3.0 mph 8.0 mph 60% 0.00 in BKN
18:02 87.7 °F 72.1 °F 30.03 in SW 2.0 mph 8.0 mph 60% 0.00 in BKN
18:15 86.8 °F 72.2 °F 30.04 in WSW 3.0 mph 10.0 mph 62% 0.00 in SCT
18:30 86.0 °F 72.4 °F 30.04 in SSW 2.0 mph 9.0 mph 64% 0.00 in SCT
18:45 85.3 °F 71.7 °F 30.05 in SSW 5.0 mph 12.0 mph 64% 0.00 in SCT
19:00 84.8 °F 71.7 °F 30.04 in SSW 1.0 mph 8.0 mph 65% 0.00 in SCT
19:15 83.5 °F 71.4 °F 30.04 in South 1.0 mph 8.0 mph 67% 0.00 in SCT
19:30 81.8 °F 70.7 °F 30.04 in SSW 2.0 mph 10.0 mph 69% 0.00 in SCT
19:45 80.8 °F 70.5 °F 30.04 in SSW 3.0 mph 8.0 mph 71% 0.00 in SCT
20:00 79.9 °F 70.5 °F 30.05 in SW 3.0 mph 5.0 mph 73% 0.00 in SCT
20:15 79.3 °F 69.9 °F 30.05 in SW 1.0 mph 5.0 mph 73% 0.00 in SCT
20:30 78.8 °F 69.8 °F 30.05 in SSW 1.0 mph 5.0 mph 74% 0.00 in SCT
20:45 78.4 °F 69.8 °F 30.05 in SW 1.0 mph 4.0 mph 75% 0.00 in SCT
21:00 78.2 °F 69.6 °F 30.05 in SSW 2.0 mph 7.0 mph 75% 0.00 in SCT
21:30 77.8 °F 70.0 °F 30.06 in Calm   5.0 mph 77% 0.00 in SCT
21:45 77.4 °F 70.0 °F 30.06 in Calm   6.0 mph 78% 0.00 in SCT
22:00 77.0 °F 70.4 °F 30.07 in Calm   3.0 mph 80% 0.00 in SCT
22:15 76.7 °F 70.4 °F 30.06 in Calm   2.0 mph 81% 0.00 in SCT
22:30 76.4 °F 70.9 °F 30.06 in Calm   1.0 mph 83% 0.00 in SCT
22:45 76.2 °F 71.0 °F 30.07 in Calm   1.0 mph 84% 0.00 in SCT
23:00 75.8 °F 71.0 °F 30.06 in Calm   2.0 mph 85% 0.00 in SCT
23:15 76.4 °F 71.6 °F 30.06 in SSE 2.0 mph 5.0 mph 85% 0.00 in BKN
23:30 76.7 °F 71.5 °F 30.06 in South 1.0 mph 4.0 mph 84% 0.00 in BKN
23:45 76.6 °F 71.4 °F 30.06 in SSW 1.0 mph 4.0 mph 84% 0.00 in BKN
TarryTown NY Weather
Compliments of Weather Underground - 1.5 mb